Time;durP1;ratioP1;P1;durP2;ratioP2;P2;SDS_P1;SDS_P2;PMS_P1;PMS_P2;Temp;Humidity;BMP_temperature;BMP_pressure;BME280_temperature;BME280_humidity;BME280_pressure;Samples;Min_cycle;Max_cycle;Signal;HPM_P1;HPM_P2
2021/07/26 00:00:17;;;;;;;12.33;11.30;;;24.40;83.20;;;;;;6274042;28;20204;-62
2021/07/26 00:03:20;;;;;;;14.27;13.10;;;24.40;83.50;;;;;;6278522;28;20215;-61
2021/07/26 00:06:23;;;;;;;13.27;12.20;;;24.40;83.60;;;;;;6269815;28;20238;-62
2021/07/26 00:09:26;;;;;;;13.90;12.80;;;24.40;83.50;;;;;;6253242;28;20208;-62
2021/07/26 00:12:32;;;;;;;13.60;12.30;;;24.40;84.40;;;;;;6254060;28;20228;-66
2021/07/26 00:15:35;;;;;;;13.23;12.03;;;24.40;83.80;;;;;;6266088;28;20243;-66
2021/07/26 00:18:39;;;;;;;13.70;12.40;;;24.40;84.90;;;;;;6278118;28;20242;-63
2021/07/26 00:21:42;;;;;;;12.97;11.90;;;24.40;84.80;;;;;;6275966;28;20232;-65
2021/07/26 00:24:45;;;;;;;13.87;12.60;;;24.40;86.40;;;;;;6253595;28;20240;-66
2021/07/26 00:27:49;;;;;;;13.77;12.40;;;24.40;87.70;;;;;;6253059;28;20243;-66
2021/07/26 00:30:52;;;;;;;14.27;12.97;;;24.40;87.20;;;;;;6253240;28;20232;-66
2021/07/26 00:34:21;;;;;;;14.23;13.10;;;24.30;87.40;;;;;;6253063;28;20239;-66
2021/07/26 00:37:26;;;;;;;14.67;13.33;;;24.30;88.00;;;;;;6252765;28;20609;-66
2021/07/26 00:40:29;;;;;;;13.87;12.67;;;24.20;88.60;;;;;;6243953;28;20681;-66
2021/07/26 00:43:33;;;;;;;14.40;13.00;;;24.20;88.90;;;;;;6252367;28;20682;-62
2021/07/26 00:46:37;;;;;;;14.77;13.33;;;24.20;89.50;;;;;;6250888;28;20247;-61
2021/07/26 00:49:40;;;;;;;14.37;13.17;;;24.00;90.00;;;;;;6250709;28;20223;-62
2021/07/26 00:52:43;;;;;;;14.43;13.20;;;24.00;90.00;;;;;;6250874;28;20236;-62
2021/07/26 00:55:47;;;;;;;13.37;12.33;;;23.90;90.30;;;;;;6250402;28;20228;-63
2021/07/26 00:58:52;;;;;;;14.50;13.30;;;23.80;90.00;;;;;;6250614;28;20243;-63
2021/07/26 01:01:55;;;;;;;13.43;12.23;;;23.70;90.20;;;;;;6251660;28;20243;-63
2021/07/26 01:04:59;;;;;;;13.73;12.63;;;23.70;90.30;;;;;;6252657;28;20309;-62
2021/07/26 01:08:02;;;;;;;13.70;12.50;;;23.60;90.50;;;;;;6251126;28;20737;-62
2021/07/26 01:11:06;;;;;;;15.37;13.90;;;23.60;90.60;;;;;;6252743;28;20236;-62
2021/07/26 01:14:11;;;;;;;13.53;12.43;;;23.60;91.00;;;;;;6251071;28;20232;-62
2021/07/26 01:17:41;;;;;;;14.30;13.23;;;23.60;90.90;;;;;;6252264;28;20243;-62
2021/07/26 01:20:46;;;;;;;14.13;12.90;;;23.40;91.10;;;;;;6251846;28;20289;-63
2021/07/26 01:23:51;;;;;;;13.60;12.40;;;23.40;91.50;;;;;;6252239;28;20236;-62
2021/07/26 01:26:54;;;;;;;14.73;13.33;;;23.40;91.80;;;;;;6251751;28;20686;-62
2021/07/26 01:29:57;;;;;;;14.10;12.80;;;23.40;91.80;;;;;;6252048;28;20224;-62
2021/07/26 01:33:01;;;;;;;14.43;13.27;;;23.40;91.80;;;;;;6251612;28;20232;-63
2021/07/26 01:36:06;;;;;;;13.67;12.47;;;23.30;91.60;;;;;;6251875;28;20243;-62
2021/07/26 01:39:09;;;;;;;13.00;12.00;;;23.30;91.70;;;;;;6251641;28;20235;-60
2021/07/26 01:42:12;;;;;;;15.17;13.80;;;23.20;91.40;;;;;;6246931;28;20212;-62
2021/07/26 01:45:15;;;;;;;14.27;12.83;;;23.20;91.50;;;;;;6251822;28;20216;-62
2021/07/26 01:48:24;;;;;;;14.13;13.03;;;23.10;91.90;;;;;;6251260;28;20635;-62
2021/07/26 01:51:38;;;;;;;14.50;13.10;;;23.00;92.40;;;;;;6251702;28;20204;-62
2021/07/26 01:54:42;;;;;;;13.73;12.70;;;23.10;92.70;;;;;;6251586;28;20251;-62
2021/07/26 01:57:45;;;;;;;14.53;13.07;;;23.20;92.80;;;;;;6251408;28;20240;-62
2021/07/26 02:00:48;;;;;;;13.87;12.70;;;23.20;92.90;;;;;;6251197;28;20235;-62
2021/07/26 02:03:51;;;;;;;13.13;12.03;;;23.20;92.70;;;;;;6251174;28;20323;-62
2021/07/26 02:06:55;;;;;;;14.80;13.40;;;23.20;92.70;;;;;;6251029;28;20228;-61
2021/07/26 02:09:59;;;;;;;13.63;12.43;;;23.10;92.70;;;;;;6251383;28;20251;-62
2021/07/26 02:13:02;;;;;;;14.43;12.93;;;23.10;92.60;;;;;;6250706;28;20568;-62
2021/07/26 02:16:10;;;;;;;15.67;14.27;;;23.10;92.80;;;;;;6251156;28;20247;-62
2021/07/26 02:19:13;;;;;;;14.03;12.87;;;23.10;92.80;;;;;;6250511;28;20727;-62
2021/07/26 02:22:19;;;;;;;14.40;13.10;;;23.10;92.80;;;;;;6250762;28;20243;-62
2021/07/26 02:25:23;;;;;;;13.97;12.77;;;23.10;92.80;;;;;;6250371;28;20228;-64
2021/07/26 02:28:26;;;;;;;13.57;12.30;;;23.10;93.00;;;;;;6250700;28;20232;-62
2021/07/26 02:31:29;;;;;;;15.13;13.70;;;23.10;93.20;;;;;;6250457;28;20239;-62
2021/07/26 02:34:32;;;;;;;12.83;11.73;;;23.00;93.20;;;;;;6250660;28;20236;-62
2021/07/26 02:37:37;;;;;;;14.67;13.17;;;23.00;93.20;;;;;;6250501;28;20232;-62
2021/07/26 02:40:40;;;;;;;14.37;13.17;;;22.90;93.10;;;;;;6250487;28;20232;-62
2021/07/26 02:43:44;;;;;;;13.83;12.70;;;22.80;93.20;;;;;;6250226;28;20573;-62
2021/07/26 02:46:47;;;;;;;13.23;12.00;;;22.80;93.40;;;;;;6249958;28;20236;-61
2021/07/26 02:49:50;;;;;;;13.63;12.47;;;22.80;93.50;;;;;;6250362;28;20293;-61
2021/07/26 02:52:55;;;;;;;13.13;12.07;;;22.80;93.20;;;;;;6250064;28;20685;-63
2021/07/26 02:55:58;;;;;;;13.10;12.00;;;22.70;93.20;;;;;;6250104;28;20232;-61
2021/07/26 02:59:01;;;;;;;13.80;12.50;;;22.60;93.20;;;;;;6249585;28;20708;-62
2021/07/26 03:02:05;;;;;;;13.93;12.20;;;22.50;93.30;;;;;;6249975;28;20719;-62
2021/07/26 03:05:08;;;;;;;14.10;12.73;;;22.40;93.30;;;;;;6249823;28;20273;-61
2021/07/26 03:08:13;;;;;;;13.77;12.57;;;22.40;93.30;;;;;;6249893;28;20580;-61
2021/07/26 03:11:16;;;;;;;12.80;11.80;;;22.40;93.40;;;;;;6249640;28;20236;-62
2021/07/26 03:14:19;;;;;;;14.37;13.07;;;22.30;93.60;;;;;;6249692;28;20696;-62
2021/07/26 03:17:25;;;;;;;14.50;13.30;;;22.20;94.00;;;;;;6249720;28;20278;-62
2021/07/26 03:20:28;;;;;;;12.63;11.63;;;22.20;94.20;;;;;;6206691;28;20230;-62
2021/07/26 03:23:33;;;;;;;13.33;12.20;;;22.10;94.20;;;;;;6200779;28;20710;-62
2021/07/26 03:26:37;;;;;;;13.77;12.57;;;22.20;94.20;;;;;;6200613;28;20241;-62
2021/07/26 03:29:40;;;;;;;15.00;13.50;;;22.20;94.30;;;;;;6221033;28;20232;-62
2021/07/26 03:32:43;;;;;;;13.80;12.60;;;22.30;94.60;;;;;;6224671;28;20679;-62
2021/07/26 03:35:46;;;;;;;14.40;12.73;;;22.20;94.50;;;;;;6227327;28;20239;-62
2021/07/26 03:38:50;;;;;;;13.20;12.13;;;22.10;94.60;;;;;;6232606;28;20243;-62
2021/07/26 03:41:58;;;;;;;12.80;11.23;;;22.10;94.80;;;;;;6233093;28;20259;-62
2021/07/26 03:45:01;;;;;;;13.20;12.10;;;22.10;95.10;;;;;;6232540;28;20232;-62
2021/07/26 03:48:05;;;;;;;16.03;12.00;;;22.20;95.30;;;;;;6232832;28;20228;-62
2021/07/26 03:51:08;;;;;;;13.10;12.10;;;22.30;95.30;;;;;;6232655;28;20224;-62
2021/07/26 03:54:12;;;;;;;13.53;12.33;;;22.20;95.10;;;;;;6232463;28;20567;-62
2021/07/26 03:57:15;;;;;;;14.20;13.00;;;22.30;95.30;;;;;;6208092;28;20674;-62
2021/07/26 04:00:20;;;;;;;13.07;11.90;;;22.30;95.20;;;;;;6208498;28;20213;-62
2021/07/26 04:03:27;;;;;;;13.80;12.57;;;22.30;95.20;;;;;;6208239;28;20589;-62
2021/07/26 04:06:30;;;;;;;14.10;12.80;;;22.30;95.20;;;;;;6210747;28;20538;-62
2021/07/26 04:09:38;;;;;;;14.43;12.97;;;22.30;95.10;;;;;;6233095;28;20247;-62
2021/07/26 04:12:44;;;;;;;14.90;12.60;;;22.40;94.90;;;;;;6232478;28;20644;-62
2021/07/26 04:15:49;;;;;;;11.67;10.67;;;22.40;94.90;;;;;;6232570;28;20240;-62
2021/07/26 04:18:53;;;;;;;12.60;11.60;;;22.40;94.70;;;;;;6243778;28;20244;-62
2021/07/26 04:21:57;;;;;;;14.43;13.23;;;22.40;94.50;;;;;;6257147;28;20250;-61
2021/07/26 04:25:02;;;;;;;13.70;12.00;;;22.40;94.30;;;;;;6256567;28;20584;-61
2021/07/26 04:28:05;;;;;;;13.83;12.67;;;22.40;94.60;;;;;;6256771;28;20227;-62
2021/07/26 04:31:08;;;;;;;12.40;11.40;;;22.40;94.50;;;;;;6256987;28;20224;-62
2021/07/26 04:34:11;;;;;;;13.03;11.73;;;22.40;94.40;;;;;;6256918;28;20231;-61
2021/07/26 04:37:15;;;;;;;13.07;11.87;;;22.40;94.90;;;;;;6256504;28;20236;-61
2021/07/26 04:40:23;;;;;;;12.40;11.20;;;22.40;94.50;;;;;;6257247;28;20240;-62
2021/07/26 04:43:27;;;;;;;13.80;12.63;;;22.40;94.60;;;;;;6256417;28;20251;-62
2021/07/26 04:46:30;;;;;;;12.83;11.73;;;22.40;94.50;;;;;;6256435;28;20243;-63
2021/07/26 04:49:33;;;;;;;13.40;12.03;;;22.50;94.90;;;;;;6252523;28;20709;-63
2021/07/26 04:52:36;;;;;;;14.37;13.17;;;22.60;94.70;;;;;;6253079;28;20309;-63
2021/07/26 04:55:41;;;;;;;13.40;11.80;;;22.70;94.70;;;;;;6248552;28;20572;-62
2021/07/26 04:58:44;;;;;;;12.53;11.33;;;22.90;94.60;;;;;;6252654;28;20236;-62
2021/07/26 05:01:47;;;;;;;12.90;11.90;;;23.10;94.90;;;;;;6253206;28;20239;-63
2021/07/26 05:04:50;;;;;;;13.63;12.47;;;23.20;94.30;;;;;;6252278;28;20240;-63
2021/07/26 05:07:55;;;;;;;12.53;11.50;;;23.30;94.10;;;;;;6252680;28;20250;-63
2021/07/26 05:11:00;;;;;;;12.13;11.10;;;23.50;94.00;;;;;;6252141;28;20582;-62
2021/07/26 05:14:03;;;;;;;14.30;13.10;;;23.70;93.80;;;;;;6252306;28;20607;-64
2021/07/26 05:17:06;;;;;;;13.33;12.10;;;23.90;93.50;;;;;;6252006;28;20573;-63
2021/07/26 05:20:10;;;;;;;12.93;11.53;;;24.00;93.20;;;;;;6252071;28;20240;-62
2021/07/26 05:23:16;;;;;;;13.30;12.10;;;24.10;93.10;;;;;;6252109;28;20228;-62
2021/07/26 05:26:20;;;;;;;11.63;10.83;;;24.20;93.00;;;;;;6252184;28;20246;-63
2021/07/26 05:29:23;;;;;;;12.10;11.10;;;24.30;93.10;;;;;;6251625;28;20243;-62
2021/07/26 05:32:26;;;;;;;12.20;11.20;;;24.40;93.20;;;;;;6252488;28;20232;-62
2021/07/26 05:35:31;;;;;;;11.37;10.47;;;24.60;93.30;;;;;;6251498;28;20370;-62
2021/07/26 05:38:34;;;;;;;10.63;9.70;;;24.70;93.20;;;;;;6252075;28;20661;-63
2021/07/26 05:41:38;;;;;;;11.20;10.30;;;24.90;93.10;;;;;;6251731;28;20247;-62
2021/07/26 05:44:42;;;;;;;10.33;9.30;;;25.00;92.90;;;;;;6251430;28;20236;-62
2021/07/26 05:47:49;;;;;;;11.30;10.33;;;25.20;92.80;;;;;;6251784;28;20236;-62
2021/07/26 05:50:52;;;;;;;10.60;9.70;;;25.30;92.40;;;;;;6251324;28;20546;-62
2021/07/26 05:53:56;;;;;;;10.80;9.90;;;25.40;92.20;;;;;;6251387;28;20234;-62
2021/07/26 05:57:03;;;;;;;11.80;10.80;;;25.60;92.00;;;;;;6250898;28;20246;-63
2021/07/26 06:00:10;;;;;;;10.47;9.67;;;25.70;91.90;;;;;;6250627;28;20227;-62
2021/07/26 06:03:14;;;;;;;10.57;9.67;;;25.90;91.60;;;;;;6250183;28;20227;-63
2021/07/26 06:06:18;;;;;;;11.33;10.30;;;26.30;90.70;;;;;;6251290;28;20231;-62
2021/07/26 06:09:22;;;;;;;10.70;9.83;;;26.70;90.30;;;;;;6250814;28;20687;-63
2021/07/26 06:12:29;;;;;;;10.50;9.70;;;27.00;89.10;;;;;;6250966;28;20656;-62
2021/07/26 06:15:32;;;;;;;10.00;9.27;;;27.50;87.30;;;;;;6250400;28;20258;-59
2021/07/26 06:18:35;;;;;;;12.67;11.57;;;27.90;85.60;;;;;;6250573;28;20262;-63
2021/07/26 06:21:43;;;;;;;11.97;10.97;;;28.30;83.80;;;;;;6250815;28;20231;-61
2021/07/26 06:24:46;;;;;;;10.80;9.87;;;28.70;81.40;;;;;;6250744;28;20227;-61
2021/07/26 06:27:52;;;;;;;11.63;10.60;;;29.00;79.30;;;;;;6250236;28;20688;-61
2021/07/26 06:30:55;;;;;;;10.80;9.90;;;29.30;77.80;;;;;;6250267;28;20704;-58
2021/07/26 06:33:58;;;;;;;11.17;10.30;;;29.60;76.90;;;;;;6250269;28;20227;-59
2021/07/26 06:37:01;;;;;;;11.80;10.90;;;30.10;74.40;;;;;;6250681;28;20242;-59
2021/07/26 06:40:07;;;;;;;12.63;11.63;;;30.50;72.20;;;;;;6250613;28;20531;-60
2021/07/26 06:43:12;;;;;;;10.80;9.95;;;31.30;69.10;;;;;;6249983;28;20235;-60
2021/07/26 06:46:15;;;;;;;10.23;9.43;;;32.00;67.00;;;;;;6250428;28;20227;-61
2021/07/26 06:49:18;;;;;;;9.63;8.82;;;32.40;64.70;;;;;;6249754;28;20231;-60
2021/07/26 06:52:21;;;;;;;10.40;9.50;;;32.80;62.50;;;;;;6250488;28;20238;-59
2021/07/26 06:55:25;;;;;;;10.15;9.25;;;32.40;60.90;;;;;;6249560;28;20231;-59
2021/07/26 06:58:29;;;;;;;10.43;9.65;;;31.40;62.60;;;;;;6250008;28;20231;-59
2021/07/26 07:01:32;;;;;;;12.05;10.32;;;30.80;64.40;;;;;;6250018;28;20227;-59
2021/07/26 07:04:36;;;;;;;10.43;9.63;;;30.60;65.90;;;;;;6240969;28;20242;-59
2021/07/26 07:07:45;;;;;;;11.35;10.30;;;30.60;66.70;;;;;;6249547;28;20603;-58
2021/07/26 07:10:48;;;;;;;10.05;9.25;;;31.70;65.00;;;;;;6249141;28;20234;-58
2021/07/26 07:13:54;;;;;;;10.75;9.80;;;32.70;61.80;;;;;;6249470;28;20232;-59
2021/07/26 07:16:58;;;;;;;9.82;8.90;;;34.10;58.80;;;;;;6249828;28;20583;-58
2021/07/26 07:20:02;;;;;;;9.75;8.95;;;34.70;56.00;;;;;;6249150;28;20560;-58
2021/07/26 07:23:05;;;;;;;9.68;8.77;;;34.20;56.20;;;;;;6249942;28;20227;-58
2021/07/26 07:26:08;;;;;;;10.30;9.38;;;35.30;55.20;;;;;;6249633;28;20235;-59
2021/07/26 07:29:12;;;;;;;10.50;9.60;;;35.90;52.60;;;;;;6249443;28;20281;-59
2021/07/26 07:32:16;;;;;;;8.73;8.02;;;36.10;51.90;;;;;;6249461;28;20727;-58
2021/07/26 07:35:19;;;;;;;10.02;9.07;;;36.50;51.20;;;;;;6249052;28;20243;-59
2021/07/26 07:38:22;;;;;;;9.25;8.55;;;37.20;50.10;;;;;;6249373;28;20238;-59
2021/07/26 07:41:26;;;;;;;9.45;8.65;;;38.50;47.70;;;;;;6249001;28;20590;-58
2021/07/26 07:44:32;;;;;;;10.40;9.50;;;39.30;46.00;;;;;;6249252;28;20250;-59
2021/07/26 07:47:35;;;;;;;9.90;9.13;;;39.70;44.40;;;;;;6249376;28;20688;-58
2021/07/26 07:50:38;;;;;;;9.25;8.45;;;39.70;43.80;;;;;;6249281;28;20719;-59
2021/07/26 07:53:42;;;;;;;10.70;9.90;;;39.80;43.70;;;;;;6248954;28;20561;-58
2021/07/26 07:56:46;;;;;;;10.70;9.80;;;38.10;44.70;;;;;;6249182;28;20246;-59
2021/07/26 07:59:50;;;;;;;10.10;9.30;;;37.60;46.10;;;;;;6248880;28;20231;-60
2021/07/26 08:02:53;;;;;;;10.13;9.32;;;38.40;45.10;;;;;;6249228;28;20227;-61
2021/07/26 08:05:59;;;;;;;10.48;9.57;;;39.70;43.40;;;;;;6258051;28;20288;-62
2021/07/26 08:09:03;;;;;;;11.40;10.13;;;40.30;41.90;;;;;;6259491;28;20230;-62
2021/07/26 08:12:06;;;;;;;11.27;10.38;;;40.70;41.00;;;;;;6268213;28;20550;-62
2021/07/26 08:15:12;;;;;;;10.95;10.00;;;41.30;40.00;;;;;;6248565;28;20231;-62
2021/07/26 08:18:16;;;;;;;10.38;9.68;;;42.40;38.10;;;;;;6247962;28;20318;-63
2021/07/26 08:21:19;;;;;;;10.50;9.80;;;42.30;37.60;;;;;;6259517;28;20230;-64
2021/07/26 08:24:22;;;;;;;10.23;9.43;;;41.20;38.70;;;;;;6276600;28;20214;-65
2021/07/26 08:27:25;;;;;;;10.55;9.75;;;40.80;39.80;;;;;;6276583;28;20226;-64
2021/07/26 08:30:32;;;;;;;11.07;10.18;;;40.20;39.50;;;;;;6277463;28;20230;-62
2021/07/26 08:33:35;;;;;;;10.75;9.90;;;38.70;41.20;;;;;;6278271;28;20368;-63
2021/07/26 08:36:38;;;;;;;11.88;10.88;;;38.30;42.20;;;;;;6277857;28;20250;-63
2021/07/26 08:39:45;;;;;;;10.93;10.05;;;38.00;41.30;;;;;;6256104;28;20286;-63
2021/07/26 08:42:48;;;;;;;11.48;10.68;;;37.30;42.80;;;;;;6252833;28;20231;-64
2021/07/26 08:45:53;;;;;;;11.77;10.75;;;37.00;43.70;;;;;;6252872;28;20579;-64
2021/07/26 08:48:57;;;;;;;10.55;9.70;;;36.60;44.70;;;;;;6252963;28;20661;-61
2021/07/26 08:52:01;;;;;;;11.77;10.80;;;36.10;46.70;;;;;;6252415;28;20257;-63
2021/07/26 08:55:05;;;;;;;12.68;11.57;;;35.40;47.50;;;;;;6252709;28;20250;-63
2021/07/26 08:58:08;;;;;;;11.98;11.15;;;34.80;48.50;;;;;;6252294;28;20227;-62
2021/07/26 09:01:14;;;;;;;11.60;10.70;;;34.30;49.50;;;;;;6252495;28;20227;-63
2021/07/26 09:04:18;;;;;;;9.98;9.25;;;34.10;50.10;;;;;;6261663;28;20230;-64
2021/07/26 09:07:26;;;;;;;11.50;10.48;;;33.90;50.00;;;;;;6277002;28;20219;-64
2021/07/26 09:10:33;;;;;;;11.65;10.75;;;33.90;50.10;;;;;;6267356;28;20226;-62
2021/07/26 09:13:39;;;;;;;11.85;10.75;;;33.90;50.30;;;;;;6257284;28;20238;-64
2021/07/26 09:16:56;;;;;;;11.63;10.63;;;33.80;50.80;;;;;;6251935;28;20696;-61
2021/07/26 09:20:01;;;;;;;10.98;10.15;;;33.70;51.10;;;;;;6251644;28;20227;-61
2021/07/26 09:23:14;;;;;;;11.07;10.18;;;33.40;51.70;;;;;;6251959;28;20243;-63
2021/07/26 09:26:26;;;;;;;10.90;10.05;;;33.30;52.20;;;;;;6252124;28;20370;-64
2021/07/26 09:29:31;;;;;;;11.52;10.52;;;33.30;51.90;;;;;;6251400;28;20224;-64
2021/07/26 09:32:38;;;;;;;13.68;10.73;;;33.10;52.10;;;;;;6251908;28;20239;-63
2021/07/26 09:35:41;;;;;;;11.98;10.88;;;33.00;51.90;;;;;;6250695;28;20681;-63
2021/07/26 09:38:56;;;;;;;11.32;10.43;;;33.00;52.30;;;;;;6252730;28;20228;-63
2021/07/26 09:41:59;;;;;;;10.38;9.40;;;32.60;53.50;;;;;;6249794;28;20254;-63
2021/07/26 09:45:21;;;;;;;11.38;10.48;;;32.50;53.10;;;;;;6249334;28;20231;-63
2021/07/26 09:48:27;;;;;;;11.13;10.25;;;32.70;53.10;;;;;;6249216;28;20208;-63
2021/07/26 09:51:30;;;;;;;11.48;10.48;;;33.00;52.70;;;;;;6249555;28;20184;-62
2021/07/26 09:54:44;;;;;;;12.25;11.23;;;32.80;51.80;;;;;;6248968;28;20232;-62
2021/07/26 09:57:47;;;;;;;12.57;11.48;;;32.80;51.60;;;;;;6250922;28;20531;-63
2021/07/26 10:00:50;;;;;;;11.38;10.27;;;32.20;52.60;;;;;;6251120;28;20223;-63
2021/07/26 10:03:55;;;;;;;11.10;10.20;;;32.30;52.70;;;;;;6253454;28;20241;-64
2021/07/26 10:06:59;;;;;;;10.77;9.65;;;32.30;53.20;;;;;;6275239;28;20289;-62
2021/07/26 10:10:04;;;;;;;11.02;10.13;;;32.30;53.20;;;;;;6275819;28;20222;-63
2021/07/26 10:13:09;;;;;;;11.82;10.82;;;32.50;53.40;;;;;;6255150;28;20727;-62
2021/07/26 10:16:14;;;;;;;11.73;10.77;;;32.40;53.50;;;;;;6251139;28;20254;-62
2021/07/26 10:19:19;;;;;;;12.18;11.18;;;32.30;52.80;;;;;;6249993;28;20574;-62
2021/07/26 10:22:26;;;;;;;11.57;10.68;;;32.30;53.10;;;;;;6250983;28;20310;-62
2021/07/26 10:25:38;;;;;;;12.63;11.48;;;32.30;53.40;;;;;;6250483;28;20575;-61
2021/07/26 10:28:44;;;;;;;12.25;11.25;;;32.30;53.10;;;;;;6250494;28;20697;-62
2021/07/26 10:31:48;;;;;;;13.00;12.00;;;32.50;52.90;;;;;;6250091;28;20279;-63
2021/07/26 10:34:52;;;;;;;20.95;14.05;;;32.70;53.00;;;;;;6250492;28;20242;-63
2021/07/26 10:37:55;;;;;;;13.10;12.05;;;32.80;53.20;;;;;;6249388;28;20227;-61
2021/07/26 10:40:58;;;;;;;13.32;12.05;;;32.40;53.00;;;;;;6250479;28;20258;-65
2021/07/26 10:44:02;;;;;;;12.48;11.43;;;32.50;53.00;;;;;;6253252;28;20660;-63
2021/07/26 10:47:21;;;;;;;13.07;11.70;;;32.50;53.00;;;;;;6276617;28;20219;-64
2021/07/26 10:50:35;;;;;;;12.20;11.35;;;32.10;53.60;;;;;;6255730;28;20229;-65
2021/07/26 10:53:57;;;;;;;12.85;11.55;;;32.30;54.30;;;;;;6210253;28;21007;-63
2021/07/26 10:57:09;;;;;;;12.93;11.73;;;32.20;55.00;;;;;;6224839;28;20628;-64
2021/07/26 11:00:18;;;;;;;12.77;11.68;;;32.30;55.00;;;;;;6224909;28;20658;-62
2021/07/26 11:03:42;;;;;;;13.25;12.27;;;32.60;55.00;;;;;;6241475;28;20524;-63
2021/07/26 11:07:04;;;;;;;12.35;11.25;;;32.50;55.10;;;;;;6255067;28;20228;-63
2021/07/26 11:10:27;;;;;;;13.23;12.00;;;32.50;54.10;;;;;;6225007;28;20232;-62
2021/07/26 11:14:10;;;;;;;13.70;12.57;;;32.50;54.40;;;;;;6243118;28;20228;-62
2021/07/26 11:17:15;;;;;;;13.85;12.50;;;32.50;54.30;;;;;;6243691;28;20228;-62
2021/07/26 11:20:56;;;;;;;12.75;11.63;;;32.60;54.20;;;;;;6236469;28;20223;-63
2021/07/26 11:24:01;;;;;;;13.52;12.43;;;32.70;53.80;;;;;;6242484;28;20564;-63
2021/07/26 11:27:04;;;;;;;12.60;11.30;;;32.80;53.80;;;;;;6224713;28;20244;-62
2021/07/26 11:30:10;;;;;;;12.75;11.68;;;32.90;53.80;;;;;;6253382;28;20566;-62
2021/07/26 11:33:14;;;;;;;13.90;12.27;;;33.20;53.60;;;;;;6273777;28;20195;-60
2021/07/26 11:36:17;;;;;;;13.25;12.15;;;33.50;53.10;;;;;;6272523;28;20707;-62
2021/07/26 11:39:22;;;;;;;14.18;12.90;;;33.50;52.60;;;;;;6248599;28;20536;-62
2021/07/26 11:42:27;;;;;;;13.23;12.25;;;33.30;53.70;;;;;;6248839;28;20204;-61
2021/07/26 11:45:32;;;;;;;12.77;11.77;;;33.00;54.00;;;;;;6248712;28;20311;-62
2021/07/26 11:48:35;;;;;;;13.07;12.00;;;33.10;54.10;;;;;;6248746;28;20227;-63
2021/07/26 11:51:40;;;;;;;14.50;13.07;;;33.20;54.20;;;;;;6248827;28;20715;-63
2021/07/26 11:54:44;;;;;;;14.07;12.80;;;33.10;53.60;;;;;;6248746;28;20239;-62
2021/07/26 11:57:57;;;;;;;13.90;12.73;;;32.80;53.80;;;;;;6249952;28;20230;-62
2021/07/26 12:01:00;;;;;;;14.60;13.35;;;32.70;54.30;;;;;;6228957;28;20228;-60
2021/07/26 12:04:04;;;;;;;17.50;12.70;;;32.70;54.60;;;;;;6228553;28;20228;-60
2021/07/26 12:07:08;;;;;;;14.02;12.82;;;32.80;53.90;;;;;;6238937;28;20621;-62
2021/07/26 12:10:14;;;;;;;13.98;12.70;;;32.50;54.30;;;;;;6243609;28;20250;-63
2021/07/26 12:13:19;;;;;;;13.43;12.05;;;32.90;54.10;;;;;;6245509;28;20228;-63
2021/07/26 12:16:22;;;;;;;14.07;12.73;;;33.50;53.10;;;;;;6249466;28;20235;-64
2021/07/26 12:19:26;;;;;;;15.05;13.55;;;33.60;52.00;;;;;;6252767;28;20239;-62
2021/07/26 12:22:40;;;;;;;14.00;12.90;;;33.00;52.60;;;;;;6244563;28;20239;-64
2021/07/26 12:25:52;;;;;;;13.38;12.23;;;32.80;53.10;;;;;;6232854;28;20248;-66
2021/07/26 12:28:58;;;;;;;12.63;11.73;;;32.80;53.50;;;;;;6228554;28;20263;-68
2021/07/26 12:32:05;;;;;;;13.30;11.90;;;33.00;52.90;;;;;;6230161;28;20573;-65
2021/07/26 12:35:14;;;;;;;13.05;11.82;;;33.30;52.90;;;;;;6252998;28;20242;-63
2021/07/26 12:38:21;;;;;;;13.25;11.95;;;33.50;52.10;;;;;;6252979;28;20235;-64
2021/07/26 12:41:31;;;;;;;13.93;12.52;;;33.50;52.10;;;;;;6252627;28;20578;-66
2021/07/26 12:44:35;;;;;;;14.07;12.75;;;33.50;51.70;;;;;;6246061;28;20244;-64
2021/07/26 12:47:44;;;;;;;12.45;11.27;;;33.50;52.10;;;;;;6230490;28;20228;-66
2021/07/26 12:50:48;;;;;;;13.82;12.57;;;33.50;51.50;;;;;;6249236;28;20224;-65
2021/07/26 12:53:52;;;;;;;17.20;12.70;;;33.40;51.60;;;;;;6252303;28;20239;-66
2021/07/26 12:56:56;;;;;;;13.68;12.27;;;33.00;52.90;;;;;;6252376;28;20232;-63
2021/07/26 12:59:59;;;;;;;12.80;11.48;;;33.00;52.90;;;;;;6242272;28;20235;-63
2021/07/26 13:03:05;;;;;;;12.70;11.45;;;33.00;52.10;;;;;;6250992;28;20247;-64
2021/07/26 13:06:08;;;;;;;14.30;12.57;;;33.20;52.40;;;;;;6250179;28;20563;-63
2021/07/26 13:09:11;;;;;;;13.70;11.70;;;33.40;51.60;;;;;;6247331;28;20224;-64
2021/07/26 13:12:16;;;;;;;13.15;11.73;;;33.60;51.60;;;;;;6240361;28;20650;-64
2021/07/26 13:15:19;;;;;;;12.27;11.18;;;33.70;51.40;;;;;;6223748;28;20224;-65
2021/07/26 13:18:22;;;;;;;12.20;11.10;;;33.90;50.90;;;;;;6225035;28;20263;-63
2021/07/26 13:21:25;;;;;;;12.45;11.25;;;33.90;50.70;;;;;;6226071;28;20232;-64
2021/07/26 13:24:28;;;;;;;12.10;10.88;;;33.90;50.30;;;;;;6222247;28;20231;-62
2021/07/26 13:27:33;;;;;;;11.88;10.75;;;34.10;50.60;;;;;;6227075;28;20205;-63
2021/07/26 13:30:37;;;;;;;11.82;10.50;;;34.20;50.80;;;;;;6228651;28;20236;-61
2021/07/26 13:33:40;;;;;;;13.40;10.25;;;34.00;50.80;;;;;;6233869;28;20306;-62
2021/07/26 13:36:44;;;;;;;12.50;11.32;;;33.90;50.70;;;;;;6227124;28;20232;-63
2021/07/26 13:39:47;;;;;;;12.10;11.05;;;33.40;52.00;;;;;;6226676;28;20553;-63
2021/07/26 13:42:52;;;;;;;12.98;11.77;;;33.20;52.70;;;;;;6226436;28;20568;-63
2021/07/26 13:45:55;;;;;;;13.85;11.20;;;33.10;53.10;;;;;;6226939;28;20228;-61
2021/07/26 13:49:00;;;;;;;12.25;10.88;;;33.00;53.50;;;;;;6226662;28;20325;-62
2021/07/26 13:52:04;;;;;;;16.92;11.10;;;32.90;54.10;;;;;;6248762;28;20223;-60
2021/07/26 13:55:08;;;;;;;13.02;10.32;;;32.70;53.80;;;;;;6250725;28;20238;-61
2021/07/26 13:58:12;;;;;;;15.48;10.65;;;32.50;53.60;;;;;;6244838;28;20227;-60
2021/07/26 14:01:16;;;;;;;14.65;10.80;;;31.90;54.30;;;;;;6226026;28;20700;-60
2021/07/26 14:04:20;;;;;;;10.40;9.32;;;31.70;54.80;;;;;;6226413;28;20216;-61
2021/07/26 14:07:23;;;;;;;13.73;9.90;;;31.60;55.10;;;;;;6248762;28;20700;-60
2021/07/26 14:10:26;;;;;;;18.45;10.13;;;31.50;55.20;;;;;;6250793;28;20246;-60
2021/07/26 14:13:35;;;;;;;18.08;10.77;;;31.30;55.30;;;;;;6231509;28;20241;-60
2021/07/26 14:16:38;;;;;;;13.82;9.75;;;31.10;55.80;;;;;;6226117;28;20319;-61
2021/07/26 14:19:41;;;;;;;15.30;9.25;;;31.00;55.80;;;;;;6225238;28;20228;-61
2021/07/26 14:22:44;;;;;;;16.42;11.27;;;31.00;55.80;;;;;;6225767;28;20240;-61
2021/07/26 14:25:47;;;;;;;15.93;9.52;;;31.00;55.80;;;;;;6225812;28;20243;-62
2021/07/26 14:28:52;;;;;;;15.65;9.85;;;31.00;55.40;;;;;;6225666;28;20224;-63
2021/07/26 14:31:55;;;;;;;17.63;9.07;;;31.00;55.50;;;;;;6234826;28;20247;-62
2021/07/26 14:34:58;;;;;;;15.07;9.70;;;31.00;55.40;;;;;;6250187;28;20700;-62
2021/07/26 14:38:03;;;;;;;14.75;8.60;;;30.80;55.80;;;;;;6247439;28;20231;-62
2021/07/26 14:41:06;;;;;;;15.65;9.82;;;30.80;55.70;;;;;;6225103;28;20251;-65
2021/07/26 14:44:11;;;;;;;12.20;8.93;;;30.70;56.20;;;;;;6225180;28;20231;-63
2021/07/26 14:47:14;;;;;;;13.27;9.95;;;30.70;56.40;;;;;;6224932;28;20224;-65
2021/07/26 14:50:18;;;;;;;17.75;10.52;;;30.60;56.80;;;;;;6232639;28;20219;-65
2021/07/26 14:53:22;;;;;;;22.30;11.77;;;30.70;57.20;;;;;;6249361;28;20238;-64
2021/07/26 14:56:27;;;;;;;16.70;9.17;;;30.50;57.80;;;;;;6250010;28;20240;-64
2021/07/26 14:59:32;;;;;;;17.07;11.13;;;30.30;58.70;;;;;;6231776;28;20566;-63
2021/07/26 15:02:36;;;;;;;22.60;10.80;;;30.20;58.80;;;;;;6224669;28;20233;-60
2021/07/26 15:05:39;;;;;;;23.43;10.73;;;30.00;58.10;;;;;;6231071;28;20242;-61
2021/07/26 15:08:43;;;;;;;14.40;9.97;;;30.10;57.70;;;;;;6247187;28;20234;-60
2021/07/26 15:11:46;;;;;;;18.33;9.40;;;29.90;57.80;;;;;;6242616;28;20226;-61
2021/07/26 15:14:51;;;;;;;16.13;8.83;;;30.00;57.00;;;;;;6222184;28;20637;-61
2021/07/26 15:17:54;;;;;;;14.27;8.73;;;30.00;56.70;;;;;;6224064;28;20237;-63
2021/07/26 15:20:57;;;;;;;17.57;9.77;;;29.90;57.10;;;;;;6224581;28;20232;-66
2021/07/26 15:24:00;;;;;;;17.80;9.90;;;29.80;58.00;;;;;;6225116;28;20231;-64
2021/07/26 15:27:04;;;;;;;11.73;9.20;;;29.70;58.30;;;;;;6224343;28;20228;-66
2021/07/26 15:30:10;;;;;;;16.30;9.20;;;29.70;58.70;;;;;;6224607;28;20701;-63
2021/07/26 15:33:13;;;;;;;16.77;9.40;;;29.50;59.40;;;;;;6240842;28;20561;-61
2021/07/26 15:36:16;;;;;;;17.23;10.17;;;29.40;60.20;;;;;;6230876;28;20228;-60
2021/07/26 15:39:20;;;;;;;11.40;8.27;;;29.40;60.80;;;;;;6244934;28;20606;-62
2021/07/26 15:42:24;;;;;;;17.53;9.17;;;29.50;60.50;;;;;;6245424;28;20677;-60